createdAt,value
2019-03-09T00:01:46.126Z,8.87
2019-03-09T00:04:15.604Z,9.33
2019-03-09T00:06:45.178Z,8.57
2019-03-09T00:09:15.352Z,9.60
2019-03-09T00:11:44.900Z,9.43
2019-03-09T00:14:17.291Z,8.73
2019-03-09T00:16:46.728Z,8.43
2019-03-09T00:19:16.165Z,9.53
2019-03-09T00:21:47.730Z,7.93
2019-03-09T00:24:24.505Z,9.23
2019-03-09T00:26:55.582Z,8.80
2019-03-09T00:29:26.627Z,7.60
2019-03-09T00:32:01.151Z,7.80
2019-03-09T00:34:30.799Z,7.90
2019-03-09T00:37:00.790Z,9.37
2019-03-09T00:39:30.764Z,7.63
2019-03-09T00:42:00.207Z,7.83
2019-03-09T00:44:31.002Z,7.33
2019-03-09T00:47:00.944Z,6.90
2019-03-09T00:49:31.911Z,8.23
2019-03-09T00:52:01.322Z,7.07
2019-03-09T00:54:30.761Z,6.30
2019-03-09T00:57:01.904Z,6.53
2019-03-09T00:59:31.325Z,6.30
2019-03-09T01:02:03.810Z,6.40
2019-03-09T01:04:33.235Z,5.90
2019-03-09T01:07:02.644Z,5.57
2019-03-09T01:09:32.092Z,6.00
2019-03-09T01:12:01.500Z,7.53
2019-03-09T01:14:31.511Z,7.03
2019-03-09T01:17:01.993Z,5.73
2019-03-09T01:19:31.704Z,5.13
2019-03-09T01:22:01.145Z,7.27
2019-03-09T01:24:33.687Z,4.80
2019-03-09T01:27:03.190Z,5.97
2019-03-09T01:29:34.124Z,5.63
2019-03-09T01:32:03.549Z,6.23
2019-03-09T01:34:32.957Z,6.40
2019-03-09T01:37:02.471Z,7.30
2019-03-09T01:39:32.054Z,5.20
2019-03-09T01:42:01.554Z,5.57
2019-03-09T01:44:30.994Z,6.03
2019-03-09T01:47:03.501Z,4.00
2019-03-09T01:49:32.996Z,5.67
2019-03-09T01:52:04.439Z,4.10
2019-03-09T01:54:33.596Z,4.77
2019-03-09T01:57:04.853Z,5.27
2019-03-09T01:59:34.353Z,4.13
2019-03-09T02:02:03.936Z,4.27
2019-03-09T02:04:33.444Z,4.23
2019-03-09T02:07:02.850Z,5.20
2019-03-09T02:09:32.431Z,7.20
2019-03-09T02:12:01.860Z,4.00
2019-03-09T02:14:31.343Z,7.13
2019-03-09T02:17:00.774Z,6.17
2019-03-09T02:19:30.183Z,3.87
2019-03-09T02:21:59.666Z,4.70
2019-03-09T02:24:29.080Z,6.10
2019-03-09T02:27:00.122Z,5.40
2019-03-09T02:29:32.438Z,5.87
2019-03-09T02:32:01.870Z,6.40
2019-03-09T02:34:31.282Z,4.97
2019-03-09T02:37:00.721Z,4.87
2019-03-09T02:39:35.779Z,4.67
2019-03-09T02:42:05.497Z,4.87
2019-03-09T02:44:34.906Z,5.33
2019-03-09T02:47:04.891Z,6.23
2019-03-09T02:49:34.298Z,7.90
2019-03-09T02:52:03.804Z,6.53
2019-03-09T02:54:33.230Z,5.67
2019-03-09T02:57:04.247Z,6.63
2019-03-09T02:59:33.681Z,5.07
2019-03-09T03:02:16.852Z,6.27
2019-03-09T03:04:46.293Z,7.37
2019-03-09T03:07:15.710Z,7.00
2019-03-09T03:09:45.133Z,6.27
2019-03-09T03:12:14.629Z,6.20
2019-03-09T03:14:47.002Z,6.60
2019-03-09T03:17:16.408Z,7.17
2019-03-09T03:19:45.842Z,7.17
2019-03-09T03:22:18.276Z,6.00
2019-03-09T03:24:48.191Z,5.10
2019-03-09T03:27:17.665Z,7.47
2019-03-09T03:29:47.066Z,6.77
2019-03-09T03:32:16.868Z,8.00
2019-03-09T03:34:46.286Z,5.70
2019-03-09T03:37:18.710Z,6.57
2019-03-09T03:39:48.194Z,5.67
2019-03-09T03:42:18.055Z,6.37
2019-03-09T03:44:47.530Z,5.60
2019-03-09T03:47:18.108Z,6.00
2019-03-09T03:49:47.576Z,8.73
2019-03-09T03:52:16.954Z,5.63
2019-03-09T03:54:46.437Z,8.37
2019-03-09T03:57:15.821Z,6.17
2019-03-09T03:59:45.334Z,6.17
2019-03-09T04:02:14.891Z,8.13
2019-03-09T04:04:44.453Z,9.43
2019-03-09T04:07:14.233Z,6.67
2019-03-09T04:09:44.109Z,6.47
2019-03-09T04:12:13.558Z,6.73
2019-03-09T04:14:43.029Z,6.23
2019-03-09T04:17:12.471Z,8.50
2019-03-09T04:19:41.955Z,6.67
2019-03-09T04:22:11.401Z,6.53
2019-03-09T04:24:40.884Z,7.13
2019-03-09T04:27:10.458Z,7.13
2019-03-09T04:29:39.927Z,8.63
2019-03-09T04:32:09.495Z,5.87
2019-03-09T04:34:39.586Z,6.73
2019-03-09T04:37:08.943Z,5.27
2019-03-09T04:39:38.385Z,5.43
2019-03-09T04:42:07.788Z,6.80
2019-03-09T04:44:37.223Z,5.30
2019-03-09T04:47:06.770Z,4.83
2019-03-09T04:49:36.191Z,4.70
2019-03-09T04:52:05.604Z,4.83
2019-03-09T04:54:35.027Z,5.30
2019-03-09T04:57:07.628Z,3.97
2019-03-09T04:59:37.042Z,4.17
2019-03-09T05:02:06.443Z,3.60
2019-03-09T05:04:41.970Z,2.97
2019-03-09T05:07:13.034Z,3.47
2019-03-09T05:09:48.084Z,3.00
2019-03-09T05:12:17.512Z,3.30
2019-03-09T05:14:46.989Z,3.20
2019-03-09T05:17:16.448Z,2.80
2019-03-09T05:19:45.858Z,2.80
2019-03-09T05:22:15.352Z,2.87
2019-03-09T05:24:44.762Z,2.57
2019-03-09T05:27:14.449Z,2.67
2019-03-09T05:29:43.868Z,3.23
2019-03-09T05:32:13.358Z,3.03
2019-03-09T05:34:45.138Z,3.27
2019-03-09T05:37:14.543Z,2.67
2019-03-09T05:39:45.018Z,2.37
2019-03-09T05:42:14.422Z,2.77
2019-03-09T05:44:43.844Z,2.60
2019-03-09T05:47:13.259Z,2.50
2019-03-09T05:49:42.690Z,2.33
2019-03-09T05:52:24.279Z,2.53
2019-03-09T05:54:57.009Z,2.87
2019-03-09T05:57:26.485Z,3.33
2019-03-09T05:59:55.914Z,3.40
2019-03-09T06:02:25.315Z,3.80
2019-03-09T06:04:54.733Z,4.27
2019-03-09T06:07:24.159Z,4.37
2019-03-09T06:09:53.571Z,4.13
2019-03-09T06:12:23.018Z,3.80
2019-03-09T06:14:52.573Z,4.97
2019-03-09T06:17:21.999Z,3.93
2019-03-09T06:19:51.483Z,5.33
2019-03-09T06:22:20.917Z,5.80
2019-03-09T06:24:50.343Z,5.80
2019-03-09T06:27:19.793Z,5.20
2019-03-09T06:29:49.217Z,5.33
2019-03-09T06:32:34.143Z,6.13
2019-03-09T06:35:05.238Z,5.87
2019-03-09T06:37:34.703Z,5.63
2019-03-09T06:40:08.159Z,7.00
2019-03-09T06:42:46.297Z,7.63
2019-03-09T06:45:16.818Z,6.47
2019-03-09T06:47:46.419Z,6.17
2019-03-09T06:50:17.077Z,6.17
2019-03-09T06:52:46.608Z,6.30
2019-03-09T06:55:16.106Z,6.00
2019-03-09T06:57:45.521Z,5.40
2019-03-09T07:00:23.954Z,6.43
2019-03-09T07:02:53.375Z,6.43
2019-03-09T07:05:22.818Z,5.67
2019-03-09T07:07:52.325Z,7.20
2019-03-09T07:10:21.818Z,5.50
2019-03-09T07:12:51.340Z,5.83
2019-03-09T07:15:24.079Z,5.77
2019-03-09T07:17:55.966Z,5.07
2019-03-09T07:20:25.524Z,4.87
2019-03-09T07:22:56.564Z,5.53
2019-03-09T07:25:26.014Z,4.73
2019-03-09T07:27:58.496Z,5.50
2019-03-09T07:30:28.098Z,4.60
2019-03-09T07:32:57.602Z,5.97
2019-03-09T07:35:27.110Z,5.63
2019-03-09T07:37:56.594Z,4.20
2019-03-09T07:40:26.030Z,4.30
2019-03-09T07:42:55.516Z,3.93
2019-03-09T07:45:24.948Z,4.57
2019-03-09T07:47:54.521Z,4.60
2019-03-09T07:50:24.024Z,4.30
2019-03-09T07:52:55.399Z,5.10
2019-03-09T07:55:24.880Z,3.47
2019-03-09T07:58:02.184Z,8.73
2019-03-09T08:00:31.879Z,5.27
2019-03-09T08:03:01.771Z,8.47
2019-03-09T08:05:31.307Z,4.83
2019-03-09T08:08:00.795Z,3.50
2019-03-09T08:10:31.068Z,5.27
2019-03-09T08:13:01.646Z,5.10
2019-03-09T08:15:34.057Z,10.43
2019-03-09T08:18:03.458Z,4.90
2019-03-09T08:20:33.048Z,5.73
2019-03-09T08:23:02.510Z,8.07
2019-03-09T08:25:33.063Z,3.63
2019-03-09T08:28:02.509Z,3.23
2019-03-09T08:30:31.928Z,6.13
2019-03-09T08:33:02.439Z,4.83
2019-03-09T08:35:31.855Z,4.63
2019-03-09T08:38:01.313Z,5.30
2019-03-09T08:40:30.769Z,3.97
2019-03-09T08:43:00.863Z,3.07
2019-03-09T08:45:30.302Z,8.27
2019-03-09T08:47:59.711Z,6.53
2019-03-09T08:50:29.229Z,5.00
2019-03-09T08:52:58.747Z,6.30
2019-03-09T08:55:28.190Z,3.47
2019-03-09T08:57:57.663Z,5.17
2019-03-09T09:00:30.495Z,3.40
2019-03-09T09:03:00.919Z,7.17
2019-03-09T09:05:30.518Z,4.83
2019-03-09T09:08:00.031Z,5.30
2019-03-09T09:10:29.664Z,7.40
2019-03-09T09:13:00.211Z,4.20
2019-03-09T09:15:29.641Z,4.13
2019-03-09T09:18:00.778Z,3.87
2019-03-09T09:20:30.202Z,3.77
2019-03-09T09:22:59.718Z,7.33
2019-03-09T09:25:29.285Z,4.10
2019-03-09T09:27:58.750Z,5.70
2019-03-09T09:30:30.788Z,5.03
2019-03-09T09:33:00.572Z,3.03
2019-03-09T09:35:30.066Z,4.67
2019-03-09T09:37:59.571Z,7.97
2019-03-09T09:40:29.157Z,4.53
2019-03-09T09:42:58.735Z,8.93
2019-03-09T09:45:28.402Z,4.97
2019-03-09T09:47:57.959Z,7.73
2019-03-09T09:50:27.372Z,3.77
2019-03-09T09:52:56.800Z,13.90
2019-03-09T09:55:26.250Z,5.87
2019-03-09T09:57:56.737Z,4.40
2019-03-09T10:00:29.058Z,6.70
2019-03-09T10:02:58.506Z,4.90
2019-03-09T10:05:28.026Z,5.17
2019-03-09T10:08:00.907Z,6.13
2019-03-09T10:10:30.438Z,4.73
2019-03-09T10:12:59.919Z,4.73
2019-03-09T10:15:31.094Z,8.20
2019-03-09T10:18:00.608Z,5.03
2019-03-09T10:20:30.045Z,3.53
2019-03-09T10:23:04.586Z,6.80
2019-03-09T10:25:33.275Z,3.47
2019-03-09T10:28:02.763Z,4.33
2019-03-09T10:30:32.275Z,5.47
2019-03-09T10:33:01.793Z,7.27
2019-03-09T10:35:32.170Z,8.73
2019-03-09T10:38:02.692Z,6.10
2019-03-09T10:40:32.227Z,5.27
2019-03-09T10:43:01.657Z,3.87
2019-03-09T10:45:31.173Z,7.20
2019-03-09T10:48:00.622Z,6.87
2019-03-09T10:50:30.035Z,6.30
2019-03-09T10:52:59.484Z,8.97
2019-03-09T10:55:34.037Z,7.73
2019-03-09T10:58:03.545Z,6.60
2019-03-09T11:00:37.636Z,5.67
2019-03-09T11:03:07.213Z,4.27
2019-03-09T11:05:36.762Z,6.73
2019-03-09T11:08:06.444Z,7.50
2019-03-09T11:10:35.996Z,5.20
2019-03-09T11:13:05.591Z,4.17
2019-03-09T11:15:37.677Z,4.70
2019-03-09T11:18:06.697Z,6.30
2019-03-09T11:20:36.209Z,6.23
2019-03-09T11:23:05.647Z,3.60
2019-03-09T11:25:35.066Z,6.13
2019-03-09T11:28:09.731Z,3.90
2019-03-09T11:30:39.224Z,9.57
2019-03-09T11:33:08.751Z,3.67
2019-03-09T11:35:38.280Z,4.67
2019-03-09T11:38:07.795Z,4.83
2019-03-09T11:40:38.819Z,3.50
2019-03-09T11:43:08.373Z,5.07
2019-03-09T11:45:37.949Z,5.97
2019-03-09T11:48:07.728Z,6.90
2019-03-09T11:50:37.234Z,4.33
2019-03-09T11:53:06.722Z,3.57
2019-03-09T11:55:39.363Z,5.63
2019-03-09T11:58:08.779Z,4.77
2019-03-09T12:00:42.596Z,6.20
2019-03-09T12:03:12.118Z,5.43
2019-03-09T12:05:41.590Z,4.50
2019-03-09T12:08:11.207Z,4.10
2019-03-09T12:10:43.821Z,5.17
2019-03-09T12:13:13.315Z,5.40
2019-03-09T12:15:42.745Z,4.80
2019-03-09T12:18:12.354Z,4.83
2019-03-09T12:20:41.955Z,5.37
2019-03-09T12:23:20.086Z,6.03
2019-03-09T12:25:49.604Z,7.03
2019-03-09T12:28:19.189Z,6.70
2019-03-09T12:30:48.796Z,4.87
2019-03-09T12:33:18.260Z,5.50
2019-03-09T12:35:47.774Z,5.93
2019-03-09T12:38:17.366Z,6.60
2019-03-09T12:40:46.974Z,5.87
2019-03-09T12:43:16.528Z,5.13
2019-03-09T12:45:46.124Z,5.40
2019-03-09T12:48:19.844Z,4.80
2019-03-09T12:50:49.384Z,4.83
2019-03-09T12:53:21.982Z,5.37
2019-03-09T12:55:51.537Z,6.40
2019-03-09T12:58:22.647Z,4.73
2019-03-09T13:00:52.226Z,5.13
2019-03-09T13:03:23.370Z,5.03
2019-03-09T13:05:52.796Z,6.50
2019-03-09T13:08:25.519Z,5.93
2019-03-09T13:10:56.021Z,5.13
2019-03-09T13:13:27.210Z,5.17
2019-03-09T13:15:56.640Z,5.43
2019-03-09T13:18:26.095Z,8.00
2019-03-09T13:20:58.461Z,5.63
2019-03-09T13:23:27.953Z,7.57
2019-03-09T13:25:57.465Z,7.23
2019-03-09T13:28:29.882Z,6.93
2019-03-09T13:30:59.308Z,5.90
2019-03-09T13:33:30.285Z,6.17
2019-03-09T13:36:01.423Z,6.60
2019-03-09T13:38:30.921Z,6.47
2019-03-09T13:41:00.343Z,7.60
2019-03-09T13:43:29.776Z,5.30
2019-03-09T13:45:59.199Z,6.10
2019-03-09T13:48:28.703Z,6.10
2019-03-09T13:50:58.429Z,4.87
2019-03-09T13:53:27.962Z,6.13
2019-03-09T13:55:57.386Z,6.37
2019-03-09T13:58:26.818Z,6.53
2019-03-09T14:00:56.300Z,6.73
2019-03-09T14:03:28.758Z,7.40
2019-03-09T14:05:58.187Z,6.33
2019-03-09T14:08:27.599Z,6.87
2019-03-09T14:10:57.096Z,8.00
2019-03-09T14:13:26.658Z,5.87
2019-03-09T14:15:56.096Z,7.30
2019-03-09T14:18:27.278Z,8.53
2019-03-09T14:20:58.416Z,8.33
2019-03-09T14:23:27.909Z,10.47
2019-03-09T14:25:58.986Z,7.07
2019-03-09T14:28:28.391Z,7.10
2019-03-09T14:30:57.904Z,6.97
2019-03-09T14:33:28.923Z,4.70
2019-03-09T14:35:58.693Z,6.07
2019-03-09T14:38:28.178Z,5.60
2019-03-09T14:40:57.698Z,5.30
2019-03-09T14:43:27.109Z,6.07
2019-03-09T14:45:56.553Z,5.43
2019-03-09T14:48:26.009Z,6.23
2019-03-09T14:50:55.420Z,5.53
2019-03-09T14:53:28.210Z,4.20
2019-03-09T14:55:57.709Z,6.13
2019-03-09T14:58:27.157Z,4.57
2019-03-09T15:00:56.708Z,3.60
2019-03-09T15:03:26.206Z,3.10
2019-03-09T15:05:55.794Z,3.53
2019-03-09T15:08:28.035Z,3.80
2019-03-09T15:10:57.449Z,3.23
2019-03-09T15:13:26.969Z,2.43
2019-03-09T15:15:56.468Z,3.03
2019-03-09T15:18:25.971Z,3.43
2019-03-09T15:20:55.405Z,7.03
2019-03-09T15:23:24.905Z,7.80
2019-03-09T15:25:54.311Z,8.00
2019-03-09T15:28:23.815Z,6.73
2019-03-09T15:30:53.308Z,5.90
2019-03-09T15:33:22.801Z,4.73
2019-03-09T15:35:52.202Z,5.10
2019-03-09T15:38:21.719Z,5.43
2019-03-09T15:40:51.122Z,4.83
2019-03-09T15:43:20.561Z,4.00
2019-03-09T15:45:49.989Z,5.57
2019-03-09T15:48:19.472Z,5.00
2019-03-09T15:50:48.982Z,4.17
2019-03-09T15:53:19.287Z,4.47
2019-03-09T15:55:49.674Z,3.93
2019-03-09T15:58:22.055Z,3.97
2019-03-09T16:00:52.847Z,2.90
2019-03-09T16:03:22.234Z,3.20
2019-03-09T16:05:51.690Z,3.73
2019-03-09T16:08:21.091Z,3.73
2019-03-09T16:10:50.685Z,5.53
2019-03-09T16:13:20.227Z,4.20
2019-03-09T16:15:49.800Z,4.40
2019-03-09T16:18:19.232Z,4.00
2019-03-09T16:20:48.714Z,4.40
2019-03-09T16:23:18.148Z,5.07
2019-03-09T16:25:55.375Z,4.53
2019-03-09T16:28:25.347Z,4.53
2019-03-09T16:30:57.712Z,4.20
2019-03-09T16:33:26.067Z,4.37
2019-03-09T16:35:57.348Z,4.83
2019-03-09T16:38:26.812Z,5.90
2019-03-09T16:40:56.219Z,4.87
2019-03-09T16:43:25.763Z,4.57
2019-03-09T16:45:55.204Z,4.10
2019-03-09T16:48:24.688Z,3.87
2019-03-09T16:50:58.429Z,7.63
2019-03-09T16:53:27.895Z,3.33
2019-03-09T16:55:58.863Z,3.00
2019-03-09T16:58:29.314Z,2.33
2019-03-09T17:01:00.530Z,2.17
2019-03-09T17:03:31.584Z,3.33
2019-03-09T17:06:01.100Z,6.20
2019-03-09T17:08:30.701Z,1.83
2019-03-09T17:11:03.123Z,4.07
2019-03-09T17:13:32.902Z,1.63
2019-03-09T17:16:02.410Z,3.93
2019-03-09T17:18:31.897Z,3.10
2019-03-09T17:21:03.212Z,2.30
2019-03-09T17:23:32.620Z,3.27
2019-03-09T17:26:02.053Z,4.80
2019-03-09T17:28:33.094Z,2.33
2019-03-09T17:31:02.530Z,2.83
2019-03-09T17:33:32.424Z,2.87
2019-03-09T17:36:01.882Z,1.90
2019-03-09T17:38:31.385Z,4.30
2019-03-09T17:41:00.866Z,2.07
2019-03-09T17:43:31.913Z,2.27
2019-03-09T17:46:08.840Z,4.13
2019-03-09T17:48:38.270Z,2.27
2019-03-09T17:51:08.182Z,2.30
2019-03-09T17:53:37.621Z,1.10
2019-03-09T17:56:07.033Z,1.30
2019-03-09T17:58:36.469Z,1.93
2019-03-09T18:01:05.875Z,2.57
2019-03-09T18:03:35.315Z,1.00
2019-03-09T18:06:04.786Z,1.60
2019-03-09T18:08:34.211Z,0.80
2019-03-09T18:11:11.627Z,1.60
2019-03-09T18:13:41.111Z,3.40
2019-03-09T18:16:10.524Z,2.27
2019-03-09T18:18:39.959Z,1.13
2019-03-09T18:21:09.439Z,2.70
2019-03-09T18:23:41.219Z,0.90
2019-03-09T18:26:10.654Z,2.83
2019-03-09T18:28:45.164Z,2.47
2019-03-09T18:31:14.647Z,2.17
2019-03-09T18:33:44.146Z,3.40
2019-03-09T18:36:13.725Z,3.37
2019-03-09T18:38:43.136Z,1.23
2019-03-09T18:41:12.652Z,3.30
2019-03-09T18:43:42.067Z,3.30
2019-03-09T18:46:13.752Z,2.30
2019-03-09T18:48:42.677Z,3.40
2019-03-09T18:51:12.108Z,1.50
2019-03-09T18:53:41.664Z,2.70
2019-03-09T18:56:11.135Z,4.33
2019-03-09T18:58:40.714Z,2.50
2019-03-09T19:01:10.283Z,3.23
2019-03-09T19:03:39.883Z,3.70
2019-03-09T19:06:09.378Z,4.87
2019-03-09T19:08:38.894Z,2.47
2019-03-09T19:11:08.331Z,3.80
2019-03-09T19:13:37.784Z,1.23
2019-03-09T19:16:07.352Z,2.70
2019-03-09T19:18:36.866Z,2.20
2019-03-09T19:21:06.303Z,2.20
2019-03-09T19:23:35.756Z,3.83
2019-03-09T19:26:05.311Z,6.00
2019-03-09T19:28:34.818Z,1.60
2019-03-09T19:31:04.407Z,3.33
2019-03-09T19:33:33.813Z,2.27
2019-03-09T19:36:03.276Z,6.00
2019-03-09T19:38:33.023Z,2.00
2019-03-09T19:41:02.529Z,4.43
2019-03-09T19:43:32.000Z,3.43
2019-03-09T19:46:01.452Z,2.20
2019-03-09T19:48:30.868Z,4.57
2019-03-09T19:51:03.093Z,4.77
2019-03-09T19:53:35.525Z,3.90
2019-03-09T19:56:05.043Z,4.03
2019-03-09T19:58:34.456Z,4.27
2019-03-09T20:01:05.542Z,2.27
2019-03-09T20:03:34.965Z,1.97
2019-03-09T20:06:04.471Z,2.27
2019-03-09T20:08:34.975Z,1.77
2019-03-09T20:11:04.528Z,2.27
2019-03-09T20:13:34.979Z,3.17
2019-03-09T20:16:04.497Z,5.80
2019-03-09T20:18:35.011Z,1.60
2019-03-09T20:21:04.783Z,2.73
2019-03-09T20:23:34.198Z,2.23
2019-03-09T20:26:03.649Z,3.87
2019-03-09T20:28:33.107Z,2.47
2019-03-09T20:31:02.512Z,1.90
2019-03-09T20:33:32.127Z,2.17
2019-03-09T20:36:01.609Z,1.60
2019-03-09T20:38:31.105Z,2.13
2019-03-09T20:41:00.573Z,1.03
2019-03-09T20:43:30.050Z,1.20
2019-03-09T20:46:00.558Z,0.83
2019-03-09T20:48:30.093Z,1.87
2019-03-09T20:50:59.526Z,2.47
2019-03-09T20:53:29.010Z,0.73
2019-03-09T20:55:58.439Z,6.03
2019-03-09T20:58:27.852Z,5.13
2019-03-09T21:00:57.307Z,0.70
2019-03-09T21:03:26.820Z,1.70
2019-03-09T21:05:56.369Z,1.30
2019-03-09T21:08:25.797Z,3.33
2019-03-09T21:11:03.395Z,5.67
2019-03-09T21:13:26.488Z,2.93
2019-03-09T21:15:55.941Z,3.87
2019-03-09T21:18:25.416Z,3.37
2019-03-09T21:20:54.842Z,2.40
2019-03-09T21:23:24.251Z,2.10
2019-03-09T21:25:53.745Z,0.97
2019-03-09T21:28:24.256Z,1.80
2019-03-09T21:30:53.680Z,3.83
2019-03-09T21:33:23.123Z,3.23
2019-03-09T21:35:52.545Z,1.90
2019-03-09T21:38:21.980Z,3.70
2019-03-09T21:40:51.387Z,4.47
2019-03-09T21:43:20.883Z,4.57
2019-03-09T21:45:50.248Z,1.50
2019-03-09T21:48:20.039Z,6.27
2019-03-09T21:50:49.472Z,3.33
2019-03-09T21:53:18.887Z,4.50
2019-03-09T21:55:48.418Z,2.70
2019-03-09T21:58:17.836Z,1.10
2019-03-09T22:00:47.276Z,2.47
2019-03-09T22:03:17.765Z,3.30
2019-03-09T22:05:48.233Z,5.93
2019-03-09T22:08:18.031Z,5.57
2019-03-09T22:10:48.587Z,3.80
2019-03-09T22:13:18.643Z,1.60
2019-03-09T22:15:48.180Z,2.30
2019-03-09T22:18:17.591Z,3.00
2019-03-09T22:20:47.094Z,4.10
2019-03-09T22:23:16.579Z,2.30
2019-03-09T22:25:55.193Z,3.23
2019-03-09T22:28:24.675Z,5.17
2019-03-09T22:30:54.223Z,2.77
2019-03-09T22:33:23.633Z,4.07
2019-03-09T22:35:53.057Z,4.43
2019-03-09T22:38:22.469Z,2.37
2019-03-09T22:40:52.022Z,1.87
2019-03-09T22:43:21.402Z,5.43
2019-03-09T22:45:50.845Z,4.00
2019-03-09T22:48:20.249Z,3.03
2019-03-09T22:50:51.651Z,3.43
2019-03-09T22:53:21.053Z,6.10
2019-03-09T22:55:53.940Z,4.67
2019-03-09T22:58:23.367Z,5.93
2019-03-09T23:00:53.602Z,4.30
2019-03-09T23:03:29.123Z,2.67
2019-03-09T23:06:00.033Z,1.90
2019-03-09T23:08:30.023Z,2.20
2019-03-09T23:11:00.814Z,3.13
2019-03-09T23:13:30.221Z,6.47
2019-03-09T23:15:59.657Z,4.67
2019-03-09T23:18:30.206Z,5.83
2019-03-09T23:20:59.709Z,3.90
2019-03-09T23:23:29.415Z,3.60
2019-03-09T23:25:58.964Z,5.20
2019-03-09T23:28:31.514Z,5.87
2019-03-09T23:31:00.993Z,4.77
2019-03-09T23:33:30.421Z,5.63
2019-03-09T23:35:59.911Z,6.60
2019-03-09T23:38:29.522Z,3.97
2019-03-09T23:40:58.938Z,3.13
2019-03-09T23:43:31.194Z,3.87
2019-03-09T23:46:00.732Z,2.10
2019-03-09T23:48:30.302Z,5.40
2019-03-09T23:50:59.792Z,3.23
2019-03-09T23:53:29.482Z,4.27
2019-03-09T23:55:58.999Z,10.37
2019-03-09T23:58:32.918Z,5.23
